Time;durP1;ratioP1;P1;durP2;ratioP2;P2;SDS_P1;SDS_P2;PMS_P1;PMS_P2;Temp;Humidity;BMP_temperature;BMP_pressure;BME280_temperature;BME280_humidity;BME280_pressure;Samples;Min_cycle;Max_cycle;Signal;HPM_P1;HPM_P2
2021/03/30 00:01:14;;;;;;;5.28;2.72;;;9.40;99.90;;;;;;5038148;28;20052;-66
2021/03/30 00:03:39;;;;;;;7.63;2.30;;;9.40;99.90;;;;;;5040889;28;20121;-66
2021/03/30 00:06:05;;;;;;;7.00;2.63;;;9.30;99.90;;;;;;5032646;28;20492;-65
2021/03/30 00:08:31;;;;;;;7.45;2.85;;;9.20;99.90;;;;;;5039608;28;20036;-65
2021/03/30 00:10:56;;;;;;;9.32;2.20;;;9.20;99.90;;;;;;5038063;28;20033;-65
2021/03/30 00:13:22;;;;;;;6.32;2.70;;;9.20;99.90;;;;;;5036750;28;20394;-65
2021/03/30 00:15:48;;;;;;;6.85;2.40;;;9.20;99.90;;;;;;5038869;28;20082;-65
2021/03/30 00:18:14;;;;;;;12.38;3.42;;;9.10;99.90;;;;;;5037351;28;20497;-65
2021/03/30 00:20:40;;;;;;;5.25;2.70;;;9.00;99.90;;;;;;5040272;28;20033;-65
2021/03/30 00:23:06;;;;;;;10.27;2.58;;;9.00;99.90;;;;;;5036624;28;20570;-66
2021/03/30 00:25:31;;;;;;;6.85;2.53;;;9.00;99.90;;;;;;5040247;28;20037;-65
2021/03/30 00:27:57;;;;;;;7.15;2.78;;;9.00;99.90;;;;;;5034684;28;20168;-66
2021/03/30 00:30:23;;;;;;;7.57;2.67;;;8.90;99.90;;;;;;5037914;28;20041;-65
2021/03/30 00:32:49;;;;;;;7.63;2.33;;;8.90;99.90;;;;;;5038206;28;20026;-65
2021/03/30 00:35:15;;;;;;;8.13;2.63;;;8.90;99.90;;;;;;5040153;28;20039;-65
2021/03/30 00:37:40;;;;;;;9.20;2.63;;;8.90;99.90;;;;;;5039673;28;20064;-66
2021/03/30 00:40:09;;;;;;;8.15;2.13;;;8.90;99.90;;;;;;5036652;28;20042;-65
2021/03/30 00:42:35;;;;;;;9.75;3.40;;;8.80;99.90;;;;;;5032953;28;20034;-65
2021/03/30 00:45:00;;;;;;;7.97;2.75;;;8.80;99.90;;;;;;5039623;28;20506;-65
2021/03/30 00:47:28;;;;;;;10.57;2.85;;;8.80;99.90;;;;;;5039401;28;20025;-65
2021/03/30 00:49:55;;;;;;;6.35;2.45;;;8.80;99.90;;;;;;5043074;28;20037;-65
2021/03/30 00:52:21;;;;;;;8.50;2.53;;;8.80;99.90;;;;;;5041496;28;20037;-65
2021/03/30 00:54:48;;;;;;;9.23;2.92;;;8.70;99.90;;;;;;5040586;28;20069;-65
2021/03/30 00:57:15;;;;;;;6.50;2.83;;;8.70;99.90;;;;;;5042373;28;20505;-66
2021/03/30 00:59:41;;;;;;;5.38;2.63;;;8.70;99.90;;;;;;5040370;28;20041;-65
2021/03/30 01:02:07;;;;;;;5.10;2.22;;;8.70;99.90;;;;;;5040441;28;20121;-65
2021/03/30 01:04:33;;;;;;;9.02;2.70;;;8.60;99.90;;;;;;5043656;28;20041;-66
2021/03/30 01:06:59;;;;;;;6.13;2.60;;;8.50;99.90;;;;;;5040384;28;20048;-65
2021/03/30 01:09:34;;;;;;;5.65;3.13;;;8.50;99.90;;;;;;5041983;28;20033;-65
2021/03/30 01:12:19;;;;;;;6.13;2.83;;;8.40;99.90;;;;;;5039888;28;20033;-65
2021/03/30 01:15:12;;;;;;;8.90;3.10;;;8.40;99.90;;;;;;5039014;28;20061;-65
2021/03/30 01:18:08;;;;;;;8.15;2.72;;;8.30;99.90;;;;;;5034779;28;20051;-64
2021/03/30 01:20:43;;;;;;;6.60;2.15;;;8.30;99.90;;;;;;5039771;28;20529;-65
2021/03/30 01:23:18;;;;;;;11.40;2.92;;;8.20;99.90;;;;;;5037061;28;20340;-65
2021/03/30 01:25:54;;;;;;;7.97;2.70;;;8.20;99.90;;;;;;5041596;28;20036;-65
2021/03/30 01:28:32;;;;;;;9.00;2.75;;;8.10;99.90;;;;;;5043484;28;20139;-66
2021/03/30 01:31:00;;;;;;;8.45;2.65;;;8.10;99.90;;;;;;5042921;28;20029;-65
2021/03/30 01:33:29;;;;;;;7.18;2.85;;;8.10;99.90;;;;;;5040023;28;20045;-65
2021/03/30 01:35:56;;;;;;;7.85;3.17;;;8.00;99.90;;;;;;5042215;28;20052;-65
2021/03/30 01:38:22;;;;;;;6.63;3.30;;;8.00;99.90;;;;;;5040244;28;20171;-66
2021/03/30 01:40:52;;;;;;;10.20;3.17;;;7.90;99.90;;;;;;5035496;28;20040;-65
2021/03/30 01:43:20;;;;;;;8.95;3.20;;;7.90;99.90;;;;;;5040902;28;20060;-65
2021/03/30 01:45:46;;;;;;;8.57;3.65;;;7.90;99.90;;;;;;5043120;28;20037;-65
2021/03/30 01:48:12;;;;;;;6.47;3.35;;;7.80;99.90;;;;;;5037832;28;20040;-65
2021/03/30 01:50:40;;;;;;;6.35;3.45;;;7.80;99.90;;;;;;5039553;28;20033;-67
2021/03/30 01:53:06;;;;;;;7.03;3.17;;;7.70;99.90;;;;;;5041278;28;20033;-65
2021/03/30 01:55:34;;;;;;;7.32;3.38;;;7.70;99.90;;;;;;5038978;28;20490;-65
2021/03/30 01:58:01;;;;;;;7.53;3.05;;;7.70;99.90;;;;;;5033492;28;20049;-64
2021/03/30 02:00:31;;;;;;;9.25;3.17;;;7.60;99.90;;;;;;5042463;28;20033;-65
2021/03/30 02:02:59;;;;;;;11.50;4.05;;;7.60;99.90;;;;;;5038877;28;20033;-66
2021/03/30 02:05:25;;;;;;;5.55;2.53;;;7.60;99.90;;;;;;5042184;28;20052;-66
2021/03/30 02:07:57;;;;;;;7.50;3.33;;;7.60;99.90;;;;;;5039349;28;20029;-66
2021/03/30 02:10:31;;;;;;;8.65;3.15;;;7.60;99.90;;;;;;5040055;28;20041;-65
2021/03/30 02:12:59;;;;;;;18.30;4.35;;;7.60;99.90;;;;;;5038867;28;20057;-66
2021/03/30 02:15:25;;;;;;;8.52;2.75;;;7.60;99.90;;;;;;5041689;28;20445;-65
2021/03/30 02:18:02;;;;;;;7.38;3.65;;;7.60;99.90;;;;;;5039231;28;20029;-65
2021/03/30 02:20:30;;;;;;;10.85;3.22;;;7.60;99.90;;;;;;5034707;28;20037;-65
2021/03/30 02:23:00;;;;;;;6.18;3.05;;;7.50;99.90;;;;;;5041747;28;20123;-65
2021/03/30 02:25:29;;;;;;;12.15;3.33;;;7.50;99.90;;;;;;5038523;28;20029;-65
2021/03/30 02:27:57;;;;;;;9.52;3.47;;;7.50;99.90;;;;;;5041853;28;20037;-64
2021/03/30 02:30:25;;;;;;;9.25;4.38;;;7.60;99.90;;;;;;5038911;28;20041;-65
2021/03/30 02:32:53;;;;;;;10.43;4.43;;;7.60;99.90;;;;;;5040964;28;20038;-66
2021/03/30 02:35:20;;;;;;;10.30;3.35;;;7.60;99.90;;;;;;5036136;28;20049;-65
2021/03/30 02:37:46;;;;;;;12.50;3.88;;;7.60;99.90;;;;;;5043984;28;20037;-65
2021/03/30 02:40:15;;;;;;;6.22;3.05;;;7.50;99.90;;;;;;5042079;28;20043;-65
2021/03/30 02:42:43;;;;;;;7.25;3.35;;;7.50;99.90;;;;;;5039067;28;20117;-65
2021/03/30 02:45:11;;;;;;;9.38;3.30;;;7.50;99.90;;;;;;5039603;28;20039;-65
2021/03/30 02:47:39;;;;;;;11.68;4.53;;;7.40;99.90;;;;;;5038656;28;20052;-65
2021/03/30 02:50:06;;;;;;;11.07;3.90;;;7.40;99.90;;;;;;5040361;28;20147;-66
2021/03/30 02:52:34;;;;;;;7.85;3.58;;;7.40;99.90;;;;;;5038174;28;20586;-65
2021/03/30 02:55:01;;;;;;;9.32;3.42;;;7.40;99.90;;;;;;5036895;28;20580;-65
2021/03/30 02:57:28;;;;;;;8.18;3.58;;;7.50;99.90;;;;;;5036746;28;20038;-66
2021/03/30 02:59:55;;;;;;;9.20;4.05;;;7.40;99.90;;;;;;5046610;28;20038;-65
2021/03/30 03:02:22;;;;;;;9.63;3.67;;;7.40;99.90;;;;;;5042523;28;20507;-65
2021/03/30 03:04:49;;;;;;;11.23;3.67;;;7.40;99.90;;;;;;5039217;28;20032;-65
2021/03/30 03:07:16;;;;;;;9.38;3.70;;;7.30;99.90;;;;;;5039847;28;20040;-65
2021/03/30 03:09:42;;;;;;;7.72;3.70;;;7.30;99.90;;;;;;5040763;28;20148;-66
2021/03/30 03:12:09;;;;;;;10.52;3.80;;;7.40;99.90;;;;;;5047036;28;20040;-66
2021/03/30 03:14:38;;;;;;;10.43;4.05;;;7.30;99.90;;;;;;5050503;28;20067;-65
2021/03/30 03:17:05;;;;;;;12.10;4.03;;;7.40;99.90;;;;;;5045607;28;20049;-66
2021/03/30 03:19:32;;;;;;;11.55;4.38;;;7.40;99.90;;;;;;5047655;28;20033;-67
2021/03/30 03:21:58;;;;;;;7.35;3.47;;;7.40;99.90;;;;;;5046915;28;20029;-68
2021/03/30 03:24:24;;;;;;;11.70;3.80;;;7.40;99.90;;;;;;5034072;28;20087;-65
2021/03/30 03:26:50;;;;;;;9.48;3.97;;;7.40;99.90;;;;;;5037956;28;20029;-65
2021/03/30 03:29:20;;;;;;;11.05;4.28;;;7.40;99.90;;;;;;5038317;28;20521;-65
2021/03/30 03:31:47;;;;;;;12.13;4.20;;;7.40;99.90;;;;;;5038595;28;20029;-65
2021/03/30 03:34:18;;;;;;;9.93;4.30;;;7.30;99.90;;;;;;5037872;28;20034;-65
2021/03/30 03:36:46;;;;;;;11.73;4.25;;;7.30;99.90;;;;;;5038202;28;20498;-65
2021/03/30 03:39:13;;;;;;;11.27;4.10;;;7.30;99.90;;;;;;5038852;28;20042;-65
2021/03/30 03:41:40;;;;;;;9.07;3.60;;;7.30;99.90;;;;;;5039172;28;20053;-65
2021/03/30 03:44:07;;;;;;;13.70;4.13;;;7.30;99.90;;;;;;5037820;28;20128;-65
2021/03/30 03:46:33;;;;;;;11.80;3.70;;;7.30;99.90;;;;;;5040231;28;20041;-66
2021/03/30 03:48:59;;;;;;;9.60;3.63;;;7.30;99.90;;;;;;5040296;28;20249;-67
2021/03/30 03:51:28;;;;;;;14.75;3.85;;;7.30;99.90;;;;;;5037083;28;20494;-67
2021/03/30 03:53:55;;;;;;;13.90;5.28;;;7.20;99.90;;;;;;5031935;28;20038;-66
2021/03/30 03:56:27;;;;;;;10.27;4.00;;;7.20;99.90;;;;;;5038404;28;20040;-66
2021/03/30 03:58:58;;;;;;;13.73;4.40;;;7.20;99.90;;;;;;5033149;28;20033;-65
2021/03/30 04:01:37;;;;;;;10.85;3.58;;;7.20;99.90;;;;;;5032964;28;20041;-65
2021/03/30 04:04:07;;;;;;;11.95;4.15;;;7.20;99.90;;;;;;5035034;28;20079;-65
2021/03/30 04:06:37;;;;;;;;;;;7.20;99.90;;;;;;5039466;28;20751;-65
2021/03/30 04:09:06;;;;;;;9.90;4.03;;;7.20;99.90;;;;;;5038053;28;19924;-66
2021/03/30 04:11:32;;;;;;;14.02;4.75;;;7.20;99.90;;;;;;5035828;28;20026;-66
2021/03/30 04:13:59;;;;;;;12.25;4.47;;;7.10;99.90;;;;;;5040411;28;20037;-65
2021/03/30 04:16:25;;;;;;;9.77;3.97;;;7.10;99.90;;;;;;5036382;28;20120;-66
2021/03/30 04:18:51;;;;;;;10.05;4.05;;;7.10;99.90;;;;;;5036172;28;20030;-66
2021/03/30 04:21:38;;;;;;;10.80;4.10;;;7.00;99.90;;;;;;5042563;28;20040;-65
2021/03/30 04:24:04;;;;;;;12.30;4.85;;;7.00;99.90;;;;;;5040980;28;20033;-64
2021/03/30 04:26:30;;;;;;;9.35;4.03;;;6.90;99.90;;;;;;5039363;28;20084;-64
2021/03/30 04:28:56;;;;;;;11.35;4.75;;;6.80;99.90;;;;;;5037624;28;20041;-65
2021/03/30 04:31:21;;;;;;;10.23;4.82;;;6.80;99.90;;;;;;5037887;28;20140;-65
2021/03/30 04:33:47;;;;;;;8.73;3.97;;;6.70;99.90;;;;;;5036178;28;20033;-65
2021/03/30 04:36:13;;;;;;;10.57;5.00;;;6.70;99.90;;;;;;5043091;28;20309;-64
2021/03/30 04:38:38;;;;;;;10.45;4.97;;;6.60;99.90;;;;;;5041178;28;20371;-65
2021/03/30 04:41:06;;;;;;;10.82;4.40;;;6.50;99.90;;;;;;5041915;28;20028;-65
2021/03/30 04:43:32;;;;;;;9.35;4.43;;;6.60;99.90;;;;;;5030300;28;20054;-65
2021/03/30 04:45:58;;;;;;;12.63;4.70;;;6.60;99.90;;;;;;5033821;28;20025;-65
2021/03/30 04:48:24;;;;;;;11.57;4.45;;;6.60;99.90;;;;;;5043202;28;20056;-64
2021/03/30 04:50:49;;;;;;;12.65;5.63;;;6.60;99.90;;;;;;5040149;28;20022;-65
2021/03/30 04:53:15;;;;;;;12.85;4.85;;;6.60;99.90;;;;;;5040444;28;20118;-65
2021/03/30 04:55:41;;;;;;;11.80;5.57;;;6.70;99.90;;;;;;5042339;28;20033;-65
2021/03/30 04:58:06;;;;;;;14.48;5.20;;;6.60;99.90;;;;;;5040685;28;20056;-66
2021/03/30 05:00:32;;;;;;;11.02;4.97;;;6.70;99.90;;;;;;5045147;28;20041;-67
2021/03/30 05:02:58;;;;;;;13.48;4.65;;;6.70;99.90;;;;;;5033080;28;20075;-66
2021/03/30 05:05:23;;;;;;;14.60;5.60;;;6.70;99.90;;;;;;5033204;28;20068;-67
2021/03/30 05:07:49;;;;;;;12.00;5.90;;;6.60;99.90;;;;;;5041068;28;20034;-65
2021/03/30 05:10:15;;;;;;;15.60;5.55;;;6.60;99.90;;;;;;5043632;28;20029;-67
2021/03/30 05:12:40;;;;;;;14.25;5.75;;;6.50;99.90;;;;;;5041429;28;20086;-65
2021/03/30 05:15:07;;;;;;;13.77;4.95;;;6.60;99.90;;;;;;5041851;28;20495;-65
2021/03/30 05:17:34;;;;;;;15.88;5.20;;;6.50;99.90;;;;;;5035095;28;20064;-65
2021/03/30 05:20:00;;;;;;;10.40;5.22;;;6.60;99.90;;;;;;5035403;28;20037;-66
2021/03/30 05:22:25;;;;;;;11.82;5.60;;;6.60;99.90;;;;;;5039907;28;20037;-66
2021/03/30 05:24:51;;;;;;;13.77;5.80;;;6.60;99.90;;;;;;5038630;28;20033;-66
2021/03/30 05:27:16;;;;;;;12.85;5.40;;;6.60;99.90;;;;;;5036835;28;20041;-65
2021/03/30 05:29:45;;;;;;;14.40;5.18;;;6.50;99.90;;;;;;5043304;28;20057;-66
2021/03/30 05:32:11;;;;;;;13.75;5.53;;;6.50;99.90;;;;;;5042914;28;20036;-66
2021/03/30 05:34:37;;;;;;;16.48;5.93;;;6.40;99.90;;;;;;5040751;28;20099;-66
2021/03/30 05:37:04;;;;;;;16.70;5.97;;;6.40;99.90;;;;;;5039913;28;20034;-66
2021/03/30 05:39:29;;;;;;;15.88;6.05;;;6.40;99.90;;;;;;5041919;28;20091;-66
2021/03/30 05:41:55;;;;;;;12.43;5.28;;;6.40;99.90;;;;;;5039797;28;20037;-66
2021/03/30 05:44:21;;;;;;;12.95;5.95;;;6.40;99.90;;;;;;5041716;28;20089;-66
2021/03/30 05:46:56;;;;;;;12.50;5.53;;;6.40;99.90;;;;;;5036995;28;20471;-66
2021/03/30 05:49:22;;;;;;;13.23;5.78;;;6.40;99.90;;;;;;5038265;28;20037;-67
2021/03/30 05:51:47;;;;;;;15.80;5.45;;;6.70;99.90;;;;;;5037053;28;20099;-66
2021/03/30 05:54:19;;;;;;;12.63;6.28;;;7.00;99.90;;;;;;5037717;28;20031;-66
2021/03/30 05:56:45;;;;;;;14.35;5.80;;;7.30;99.90;;;;;;5035848;28;20120;-66
2021/03/30 05:59:13;;;;;;;14.65;5.68;;;7.70;99.90;;;;;;5041882;28;20715;-66
2021/03/30 06:01:41;;;;;;;10.13;4.63;;;8.40;99.90;;;;;;5038466;28;20054;-66
2021/03/30 06:04:08;;;;;;;19.80;7.22;;;9.30;99.90;;;;;;5040301;28;20236;-66
2021/03/30 06:06:34;;;;;;;14.15;5.80;;;10.40;99.90;;;;;;5040613;28;20112;-67
2021/03/30 06:09:03;;;;;;;13.05;5.25;;;11.40;99.90;;;;;;5038436;28;20072;-67
2021/03/30 06:11:29;;;;;;;14.88;6.18;;;12.40;99.90;;;;;;5040319;28;20409;-68
2021/03/30 06:13:57;;;;;;;14.68;4.90;;;13.30;99.90;;;;;;5037599;28;20037;-68
2021/03/30 06:16:23;;;;;;;14.20;5.15;;;14.00;99.40;;;;;;5037391;28;20061;-68
2021/03/30 06:18:59;;;;;;;10.70;5.00;;;14.00;96.40;;;;;;5039608;28;20513;-68
2021/03/30 06:21:25;;;;;;;14.75;4.93;;;13.30;96.60;;;;;;5034607;28;20087;-68
2021/03/30 06:23:51;;;;;;;12.80;5.07;;;12.50;98.40;;;;;;5036857;28;20021;-68
2021/03/30 06:26:16;;;;;;;18.60;6.35;;;11.90;99.90;;;;;;5042605;28;20033;-67
2021/03/30 06:28:42;;;;;;;10.10;5.20;;;11.30;99.90;;;;;;5034966;28;20576;-68
2021/03/30 06:31:14;;;;;;;12.45;5.75;;;10.90;99.90;;;;;;5040995;28;20037;-68
2021/03/30 06:33:53;;;;;;;13.18;5.90;;;10.50;99.90;;;;;;5032937;28;20556;-67
2021/03/30 06:36:22;;;;;;;20.73;7.18;;;10.50;99.90;;;;;;5038624;28;20072;-68
2021/03/30 06:38:54;;;;;;;12.25;5.25;;;11.40;99.90;;;;;;5037678;28;20048;-68
2021/03/30 06:41:34;;;;;;;22.05;7.30;;;12.60;99.90;;;;;;5040108;28;20428;-68
2021/03/30 06:44:27;;;;;;;19.63;7.68;;;13.80;99.90;;;;;;5038798;28;20033;-68
2021/03/30 06:47:04;;;;;;;16.27;6.30;;;14.40;97.30;;;;;;5035607;28;20072;-68
2021/03/30 06:49:33;;;;;;;13.43;6.28;;;14.40;96.00;;;;;;5036993;28;20044;-67
2021/03/30 06:52:11;;;;;;;14.60;6.10;;;14.20;94.20;;;;;;5039816;28;20029;-68
2021/03/30 06:54:36;;;;;;;17.95;6.60;;;13.80;95.40;;;;;;5037722;28;20051;-67
2021/03/30 06:57:02;;;;;;;15.65;6.53;;;13.50;96.40;;;;;;5038450;28;20033;-67
2021/03/30 06:59:27;;;;;;;15.70;6.35;;;13.20;98.30;;;;;;5047838;28;20048;-68
2021/03/30 07:01:55;;;;;;;14.00;6.32;;;13.00;99.90;;;;;;5059648;28;20043;-68
2021/03/30 07:04:21;;;;;;;18.38;7.18;;;12.80;99.90;;;;;;5068786;28;20058;-70
2021/03/30 07:06:52;;;;;;;21.25;7.03;;;12.70;99.90;;;;;;5050190;28;20210;-67
2021/03/30 07:09:20;;;;;;;14.32;7.18;;;12.70;99.90;;;;;;5038136;28;20083;-68
2021/03/30 07:11:45;;;;;;;21.20;6.85;;;12.60;99.90;;;;;;5035165;28;20029;-68
2021/03/30 07:14:12;;;;;;;16.42;7.78;;;12.50;99.90;;;;;;5034844;28;20037;-68
2021/03/30 07:16:58;;;;;;;20.63;8.38;;;12.50;99.90;;;;;;5036133;28;20136;-68
2021/03/30 07:19:28;;;;;;;17.13;7.88;;;12.50;99.90;;;;;;5037735;28;20045;-68
2021/03/30 07:22:07;;;;;;;26.23;8.20;;;12.50;99.90;;;;;;5038949;28;20395;-68
2021/03/30 07:24:49;;;;;;;23.67;7.50;;;12.50;99.90;;;;;;5037740;28;20033;-67
2021/03/30 07:27:19;;;;;;;18.42;7.70;;;12.60;99.90;;;;;;5037487;28;20102;-67
2021/03/30 07:29:47;;;;;;;25.63;8.98;;;12.60;99.90;;;;;;5038245;28;20037;-67
2021/03/30 07:32:43;;;;;;;31.58;9.18;;;12.70;99.90;;;;;;5040844;28;20039;-68
2021/03/30 07:35:15;;;;;;;25.85;8.95;;;12.70;99.90;;;;;;5041050;28;20049;-67
2021/03/30 07:38:02;;;;;;;22.30;9.57;;;12.90;99.90;;;;;;5033680;28;20561;-68
2021/03/30 07:40:28;;;;;;;21.20;7.75;;;13.10;99.90;;;;;;5039100;28;20047;-67
2021/03/30 07:42:56;;;;;;;23.63;9.88;;;13.20;99.90;;;;;;5037107;28;20033;-67
2021/03/30 07:45:25;;;;;;;22.15;9.68;;;13.30;99.90;;;;;;5038467;28;20463;-68
2021/03/30 07:47:51;;;;;;;29.00;9.23;;;13.40;99.90;;;;;;5037875;28;20029;-67
2021/03/30 07:50:21;;;;;;;25.95;9.05;;;13.40;99.90;;;;;;5038870;28;20110;-68
2021/03/30 07:52:48;;;;;;;23.95;9.85;;;13.60;99.90;;;;;;5037124;28;20113;-68
2021/03/30 07:55:17;;;;;;;24.33;9.77;;;13.60;99.90;;;;;;5039603;28;20033;-68
2021/03/30 07:58:01;;;;;;;22.50;8.95;;;13.80;99.90;;;;;;5039508;28;20490;-67
2021/03/30 08:00:32;;;;;;;19.52;8.60;;;13.80;99.90;;;;;;5042281;28;20547;-69
2021/03/30 08:03:11;;;;;;;31.40;9.55;;;13.80;99.90;;;;;;5041188;28;20729;-68
2021/03/30 08:05:38;;;;;;;26.17;9.43;;;13.90;99.90;;;;;;5040280;28;20037;-68
2021/03/30 08:08:21;;;;;;;24.33;9.27;;;14.00;99.90;;;;;;5043576;28;20079;-68
2021/03/30 08:10:49;;;;;;;23.23;9.63;;;14.10;99.90;;;;;;5037915;28;20048;-67
2021/03/30 08:13:20;;;;;;;21.08;9.13;;;14.30;99.90;;;;;;5043373;28;20036;-68
2021/03/30 08:15:52;;;;;;;19.52;8.57;;;14.50;99.90;;;;;;5038594;28;20102;-67
2021/03/30 08:18:23;;;;;;;19.55;8.57;;;14.60;99.90;;;;;;5042264;28;20033;-67
2021/03/30 08:21:05;;;;;;;22.60;9.20;;;14.80;99.90;;;;;;5040297;28;20549;-67
2021/03/30 08:23:51;;;;;;;28.60;9.65;;;14.90;99.10;;;;;;5039731;28;21527;-68
2021/03/30 08:26:38;;;;;;;23.00;8.60;;;15.10;99.90;;;;;;5043143;28;20041;-68
2021/03/30 08:29:10;;;;;;;19.52;8.25;;;15.20;99.80;;;;;;5041455;28;20506;-68
2021/03/30 08:31:43;;;;;;;21.38;8.20;;;15.40;98.90;;;;;;5037591;28;20163;-68
2021/03/30 08:34:23;;;;;;;21.85;8.93;;;15.60;97.20;;;;;;5040976;28;20091;-68
2021/03/30 08:36:56;;;;;;;19.25;7.97;;;15.80;95.40;;;;;;5037467;28;20033;-69
2021/03/30 08:39:22;;;;;;;20.40;7.57;;;16.00;92.00;;;;;;5040521;28;20049;-68
2021/03/30 08:41:47;;;;;;;25.60;7.80;;;16.10;88.70;;;;;;5043441;28;20119;-68
2021/03/30 08:44:32;;;;;;;18.48;7.10;;;16.20;80.10;;;;;;5045962;28;20029;-67
2021/03/30 08:46:59;;;;;;;19.45;7.18;;;16.40;76.60;;;;;;5041711;28;20036;-68
2021/03/30 08:49:30;;;;;;;15.27;6.65;;;16.50;76.70;;;;;;5044479;28;20036;-67
2021/03/30 08:52:04;;;;;;;15.90;6.57;;;16.60;73.20;;;;;;5042439;28;20057;-68
2021/03/30 08:54:34;;;;;;;20.17;6.85;;;16.70;72.00;;;;;;5046485;28;20129;-68
2021/03/30 08:57:05;;;;;;;13.73;5.97;;;16.80;71.20;;;;;;5041170;28;20414;-68
2021/03/30 08:59:31;;;;;;;15.02;6.05;;;16.90;71.50;;;;;;5045172;28;20033;-68
2021/03/30 09:02:24;;;;;;;13.38;5.93;;;16.90;67.90;;;;;;5042741;28;20036;-68
2021/03/30 09:04:50;;;;;;;19.73;6.05;;;17.00;67.70;;;;;;5040314;28;20040;-68
2021/03/30 09:07:16;;;;;;;11.98;5.75;;;17.10;67.50;;;;;;5042001;28;20089;-68
2021/03/30 09:09:42;;;;;;;15.65;6.03;;;17.20;68.40;;;;;;5044872;28;20036;-68
2021/03/30 09:12:16;;;;;;;17.58;6.78;;;17.10;67.00;;;;;;5042636;28;20033;-68
2021/03/30 09:14:43;;;;;;;16.73;7.10;;;17.20;66.30;;;;;;5039132;28;20029;-68
2021/03/30 09:17:11;;;;;;;15.98;6.22;;;17.40;68.90;;;;;;5041661;28;20037;-68
2021/03/30 09:19:49;;;;;;;23.45;6.85;;;17.50;68.90;;;;;;5040490;28;20033;-68
2021/03/30 09:25:58;;;;;;;23.88;7.13;;;17.90;70.50;;;;;;5044363;28;20059;-68
2021/03/30 09:27:56;;;;;;;19.00;6.82;;;18.10;70.50;;;;;;5036303;28;20037;-68
2021/03/30 09:30:23;;;;;;;18.63;7.95;;;18.20;70.90;;;;;;5044974;28;20025;-67
2021/03/30 09:32:52;;;;;;;18.08;6.70;;;18.20;70.80;;;;;;5043051;28;20132;-68
2021/03/30 09:35:20;;;;;;;15.70;6.80;;;18.20;71.40;;;;;;5042925;28;20063;-68
2021/03/30 09:38:07;;;;;;;16.92;6.35;;;18.10;69.50;;;;;;5036195;28;20033;-69
2021/03/30 09:40:35;;;;;;;15.00;5.50;;;18.10;70.00;;;;;;5035701;28;20041;-67
2021/03/30 09:43:05;;;;;;;15.52;6.68;;;18.10;65.90;;;;;;5043333;28;20040;-68
2021/03/30 09:45:33;;;;;;;13.95;7.40;;;18.20;65.30;;;;;;5052700;28;20025;-71
2021/03/30 09:48:08;;;;;;;13.90;6.63;;;18.40;65.70;;;;;;5045353;28;20034;-68
2021/03/30 09:50:39;;;;;;;18.23;6.35;;;18.60;65.80;;;;;;5037723;28;20082;-68
2021/03/30 09:53:07;;;;;;;15.43;6.70;;;18.70;66.80;;;;;;5037183;28;20026;-66
2021/03/30 09:55:37;;;;;;;15.18;6.13;;;18.80;65.40;;;;;;5037425;28;20399;-68
2021/03/30 09:58:03;;;;;;;13.43;6.22;;;19.00;63.50;;;;;;5042592;28;20045;-66
2021/03/30 10:00:30;;;;;;;14.90;6.10;;;19.10;63.80;;;;;;5046138;28;20170;-67
2021/03/30 10:02:56;;;;;;;14.95;6.32;;;19.20;65.40;;;;;;5041166;28;20098;-67
2021/03/30 10:05:22;;;;;;;15.40;6.35;;;19.20;65.30;;;;;;5043044;28;20397;-68
2021/03/30 10:07:48;;;;;;;14.52;5.90;;;19.30;66.80;;;;;;5042878;28;20040;-66
2021/03/30 10:10:15;;;;;;;15.50;6.53;;;19.30;62.20;;;;;;5044124;28;20025;-67
2021/03/30 10:12:48;;;;;;;14.52;6.28;;;19.40;61.10;;;;;;5040421;28;20124;-67
2021/03/30 10:15:14;;;;;;;10.43;4.72;;;19.40;59.90;;;;;;5033580;28;20025;-67
2021/03/30 10:17:40;;;;;;;11.63;5.13;;;19.50;61.00;;;;;;5030729;28;20041;-67
2021/03/30 10:20:11;;;;;;;14.32;5.78;;;19.50;57.00;;;;;;5032500;28;20029;-67
2021/03/30 10:22:37;;;;;;;11.63;5.18;;;19.50;55.90;;;;;;5030203;28;20072;-66
2021/03/30 10:25:21;;;;;;;16.38;5.40;;;19.50;56.50;;;;;;5034824;28;20170;-66
2021/03/30 10:27:53;;;;;;;15.05;5.07;;;19.60;57.50;;;;;;5036859;28;20517;-68
2021/03/30 10:30:29;;;;;;;11.20;4.30;;;19.70;56.00;;;;;;5031521;28;20037;-67
2021/03/30 10:32:57;;;;;;;8.93;4.13;;;19.70;54.70;;;;;;5035641;28;20033;-67
2021/03/30 10:35:23;;;;;;;11.75;3.95;;;19.80;53.60;;;;;;5035913;28;20046;-67
2021/03/30 10:37:49;;;;;;;9.70;4.50;;;19.80;54.80;;;;;;5034847;28;20052;-66
2021/03/30 10:40:15;;;;;;;8.35;4.15;;;19.80;56.00;;;;;;5028400;28;20068;-67
2021/03/30 10:42:41;;;;;;;8.75;3.28;;;19.80;55.60;;;;;;5034536;28;20043;-66
2021/03/30 10:45:09;;;;;;;10.15;4.35;;;19.70;54.90;;;;;;5031435;28;20099;-66
2021/03/30 10:47:48;;;;;;;11.75;4.45;;;19.70;55.30;;;;;;5037590;28;20112;-65
2021/03/30 10:50:17;;;;;;;13.35;4.53;;;19.60;55.20;;;;;;5031840;28;20157;-66
2021/03/30 10:52:43;;;;;;;22.40;6.05;;;19.60;56.50;;;;;;5039694;28;20041;-67
2021/03/30 10:55:16;;;;;;;11.60;4.85;;;19.60;55.10;;;;;;5040268;28;20057;-67
2021/03/30 10:57:47;;;;;;;17.73;5.72;;;19.70;52.40;;;;;;5041709;28;20040;-66
2021/03/30 11:00:13;;;;;;;;;;;19.80;53.40;;;;;;5042792;28;20028;-67
2021/03/30 11:02:39;;;;;;;12.48;4.53;;;19.70;52.70;;;;;;5041876;28;19974;-67
2021/03/30 11:05:05;;;;;;;10.52;4.80;;;19.80;53.10;;;;;;5039226;28;20029;-68
2021/03/30 11:07:31;;;;;;;14.88;6.10;;;19.70;53.00;;;;;;5042648;28;20041;-68
2021/03/30 11:09:57;;;;;;;13.27;5.30;;;19.70;53.10;;;;;;5040256;28;20042;-68
2021/03/30 11:12:22;;;;;;;12.63;5.47;;;19.70;52.80;;;;;;5041566;28;20032;-68
2021/03/30 11:14:48;;;;;;;11.35;5.07;;;19.70;52.10;;;;;;5040119;28;20029;-66
2021/03/30 11:17:14;;;;;;;13.77;4.53;;;19.70;52.40;;;;;;5040801;28;20037;-68
2021/03/30 11:19:39;;;;;;;12.10;4.97;;;19.80;53.20;;;;;;5041280;28;20367;-67
2021/03/30 11:22:05;;;;;;;10.30;3.88;;;19.80;53.70;;;;;;5042255;28;20017;-67
2021/03/30 11:24:35;;;;;;;10.45;4.25;;;19.90;51.80;;;;;;5041911;28;20025;-66
2021/03/30 11:27:02;;;;;;;17.05;4.43;;;19.90;51.10;;;;;;5039122;28;20036;-65
2021/03/30 11:37:21;;;;;;;10.52;3.75;;;20.10;51.50;;;;;;5039065;28;20029;-67
2021/03/30 11:39:47;;;;;;;16.92;5.32;;;20.10;50.80;;;;;;5040056;28;20051;-68
2021/03/30 11:42:13;;;;;;;11.75;4.90;;;20.10;52.00;;;;;;5041573;28;20080;-68
2021/03/30 11:44:38;;;;;;;11.13;4.97;;;20.10;51.40;;;;;;5040047;28;20112;-68
2021/03/30 11:47:04;;;;;;;11.35;5.38;;;20.00;50.90;;;;;;5039167;28;20037;-69
2021/03/30 11:49:31;;;;;;;15.68;5.78;;;20.10;51.50;;;;;;5041391;28;20036;-65
2021/03/30 11:51:57;;;;;;;15.15;5.60;;;20.00;52.10;;;;;;5039513;28;20038;-66
2021/03/30 11:54:23;;;;;;;14.07;6.28;;;20.00;53.10;;;;;;5039280;28;20037;-68
2021/03/30 11:56:50;;;;;;;16.58;5.53;;;20.00;51.20;;;;;;5035064;28;20038;-69
2021/03/30 11:59:15;;;;;;;17.30;5.78;;;19.90;51.50;;;;;;5035598;28;20026;-68
2021/03/30 12:01:41;;;;;;;11.73;5.65;;;20.00;51.30;;;;;;5036736;28;20163;-65
2021/03/30 12:04:07;;;;;;;16.95;6.50;;;20.00;52.60;;;;;;5039877;28;20386;-67
2021/03/30 12:06:33;;;;;;;14.00;5.65;;;20.10;52.00;;;;;;5036099;28;20056;-67
2021/03/30 12:08:59;;;;;;;17.67;6.82;;;20.10;52.60;;;;;;5036807;28;20087;-66
2021/03/30 12:11:25;;;;;;;19.15;7.13;;;20.10;51.80;;;;;;5040317;28;20769;-67
2021/03/30 12:13:50;;;;;;;15.55;5.93;;;20.10;51.80;;;;;;5039225;28;20041;-64
2021/03/30 12:16:16;;;;;;;15.32;5.90;;;20.20;49.60;;;;;;5041549;28;20474;-67
2021/03/30 12:18:41;;;;;;;15.90;6.53;;;20.10;49.70;;;;;;5036545;28;20040;-67
2021/03/30 12:21:07;;;;;;;20.50;7.10;;;20.00;50.60;;;;;;5039155;28;20543;-66
2021/03/30 12:23:32;;;;;;;16.33;6.90;;;20.00;51.60;;;;;;5038030;28;20056;-69
2021/03/30 12:25:58;;;;;;;13.80;6.38;;;20.00;52.40;;;;;;5038270;28;20469;-68
2021/03/30 12:28:24;;;;;;;14.93;6.25;;;20.20;51.30;;;;;;5033126;28;20479;-67
2021/03/30 12:30:50;;;;;;;18.80;7.10;;;20.20;51.90;;;;;;5039222;28;20037;-67
2021/03/30 12:33:15;;;;;;;16.58;8.13;;;20.20;52.00;;;;;;5040216;28;20131;-65
2021/03/30 12:35:41;;;;;;;21.25;6.80;;;20.20;51.10;;;;;;5038665;28;20463;-67
2021/03/30 12:38:07;;;;;;;18.90;6.90;;;20.30;50.90;;;;;;5042276;28;20047;-68
2021/03/30 12:40:34;;;;;;;15.75;6.60;;;20.30;51.40;;;;;;5042985;28;20047;-67
2021/03/30 12:43:00;;;;;;;14.68;5.90;;;20.30;49.70;;;;;;5042870;28;20528;-66
2021/03/30 12:45:25;;;;;;;22.23;6.78;;;20.30;48.40;;;;;;5043335;28;20142;-67
2021/03/30 12:47:51;;;;;;;18.67;6.82;;;20.40;49.80;;;;;;5041939;28;20506;-67
2021/03/30 12:50:17;;;;;;;14.20;5.72;;;20.30;50.10;;;;;;5045081;28;20090;-68
2021/03/30 12:52:42;;;;;;;17.70;7.03;;;20.20;50.20;;;;;;5039659;28;20045;-68
2021/03/30 12:55:11;;;;;;;15.57;6.00;;;20.30;47.40;;;;;;5036253;28;20215;-67
2021/03/30 12:57:37;;;;;;;17.38;6.22;;;20.30;47.80;;;;;;5039060;28;20124;-66
2021/03/30 13:00:05;;;;;;;16.23;6.68;;;20.30;48.00;;;;;;5041428;28;20053;-64
2021/03/30 13:02:31;;;;;;;13.50;5.57;;;20.30;47.10;;;;;;5042295;28;20041;-67
2021/03/30 13:04:57;;;;;;;14.05;5.47;;;20.40;46.10;;;;;;5040055;28;20037;-66